Time;durP1;ratioP1;P1;durP2;ratioP2;P2;SDS_P1;SDS_P2;PMS_P1;PMS_P2;Temp;Humidity;BMP_temperature;BMP_pressure;BME280_temperature;BME280_humidity;BME280_pressure;Samples;Min_cycle;Max_cycle;Signal;HPM_P1;HPM_P2
2021/08/05 00:02:09;;;;;;;1999.90;999.90;;;18.80;99.90;;;;;;5014964;28;20396;-79
2021/08/05 00:04:35;;;;;;;1999.90;999.90;;;18.80;99.90;;;;;;5014825;28;20189;-79
2021/08/05 00:07:00;;;;;;;1999.90;999.90;;;18.80;99.90;;;;;;5014777;28;20429;-79
2021/08/05 00:09:26;;;;;;;1999.90;999.90;;;18.80;99.90;;;;;;5015149;28;20245;-79
2021/08/05 00:11:52;;;;;;;1999.90;999.90;;;18.70;99.90;;;;;;5014695;28;20193;-79
2021/08/05 00:14:17;;;;;;;1999.90;999.90;;;18.70;99.90;;;;;;5014773;28;20173;-78
2021/08/05 00:16:43;;;;;;;1999.90;999.90;;;18.70;99.90;;;;;;5014465;28;20540;-79
2021/08/05 00:19:09;;;;;;;1999.90;999.90;;;18.70;99.90;;;;;;5014644;28;20210;-79
2021/08/05 00:21:34;;;;;;;1999.90;999.90;;;18.70;99.90;;;;;;5015415;28;20166;-79
2021/08/05 00:24:00;;;;;;;1999.90;999.90;;;18.70;99.90;;;;;;4997538;28;20170;-79
2021/08/05 00:26:26;;;;;;;1999.90;999.90;;;18.70;99.90;;;;;;5014917;28;20190;-79
2021/08/05 00:28:52;;;;;;;1999.90;999.90;;;18.70;99.90;;;;;;5015434;28;20838;-79
2021/08/05 00:31:17;;;;;;;1999.90;999.90;;;18.60;99.90;;;;;;4997756;28;20174;-79
2021/08/05 00:33:43;;;;;;;1999.90;999.90;;;18.60;99.90;;;;;;5014943;28;20657;-79
2021/08/05 00:36:09;;;;;;;1999.90;999.90;;;18.60;99.90;;;;;;4997258;28;20208;-79
2021/08/05 00:38:35;;;;;;;1999.90;999.90;;;18.60;99.90;;;;;;5014928;28;20155;-79
2021/08/05 00:41:01;;;;;;;1999.90;999.90;;;18.60;99.90;;;;;;5015112;28;20419;-79
2021/08/05 00:43:27;;;;;;;1999.90;999.90;;;18.50;99.90;;;;;;5015161;28;20164;-79
2021/08/05 00:45:52;;;;;;;1999.90;999.90;;;18.50;99.90;;;;;;5015072;28;20553;-79
2021/08/05 00:48:18;;;;;;;1999.90;999.90;;;18.50;99.90;;;;;;5014974;28;20170;-79
2021/08/05 00:50:45;;;;;;;1999.90;999.90;;;18.50;99.90;;;;;;5014361;28;20190;-79
2021/08/05 00:53:12;;;;;;;1999.90;999.90;;;18.50;99.90;;;;;;5014633;28;20172;-79
2021/08/05 00:55:37;;;;;;;1999.90;999.90;;;18.50;99.90;;;;;;4997062;28;20412;-79
2021/08/05 00:58:03;;;;;;;1999.90;999.90;;;18.50;99.90;;;;;;4999174;28;20475;-79
2021/08/05 01:00:32;;;;;;;1999.90;999.90;;;18.50;99.90;;;;;;5018439;28;20161;-79
2021/08/05 01:03:08;;;;;;;1999.90;999.90;;;18.50;99.90;;;;;;5018411;28;20440;-79
2021/08/05 01:05:40;;;;;;;1999.90;999.90;;;18.50;99.90;;;;;;5001067;28;20868;-79
2021/08/05 01:08:11;;;;;;;1999.90;999.90;;;18.40;99.90;;;;;;5001080;28;20924;-79
2021/08/05 01:10:52;;;;;;;1999.90;999.90;;;18.40;99.90;;;;;;5018314;28;20496;-79
2021/08/05 01:13:27;;;;;;;1999.90;999.90;;;18.40;99.90;;;;;;5000571;28;20455;-79
2021/08/05 01:15:55;;;;;;;1999.90;999.90;;;18.50;99.90;;;;;;5000356;28;21028;-79
2021/08/05 01:18:27;;;;;;;1999.90;999.90;;;18.40;99.90;;;;;;5018344;28;20411;-79
2021/08/05 01:20:54;;;;;;;1999.90;999.90;;;18.40;99.90;;;;;;5018045;28;20380;-79
2021/08/05 01:23:43;;;;;;;1999.90;999.90;;;18.40;99.90;;;;;;5018278;28;20966;-79
2021/08/05 01:26:16;;;;;;;1999.90;999.90;;;18.30;99.90;;;;;;5017894;28;20421;-79
2021/08/05 01:28:45;;;;;;;1999.90;999.90;;;18.40;99.90;;;;;;5018093;28;20409;-79
2021/08/05 01:31:12;;;;;;;1999.90;999.90;;;18.40;99.90;;;;;;5018308;28;20401;-79
2021/08/05 01:33:40;;;;;;;1999.90;999.90;;;18.40;99.90;;;;;;5017730;28;20397;-79
2021/08/05 01:36:06;;;;;;;1999.90;999.90;;;18.40;99.90;;;;;;5017511;28;20552;-79
2021/08/05 01:38:37;;;;;;;1999.90;999.90;;;18.40;99.90;;;;;;5000386;28;20978;-79
2021/08/05 01:41:06;;;;;;;1999.90;999.90;;;18.30;99.90;;;;;;5017139;28;20487;-78
2021/08/05 01:43:33;;;;;;;1999.90;999.90;;;18.40;99.90;;;;;;5017418;28;20397;-79
2021/08/05 01:45:59;;;;;;;1999.90;999.90;;;18.40;99.90;;;;;;5017841;28;20417;-79
2021/08/05 01:48:25;;;;;;;1999.90;999.90;;;18.30;99.90;;;;;;4999887;28;20409;-79
2021/08/05 01:50:52;;;;;;;1999.90;999.90;;;18.30;99.90;;;;;;5017530;28;20405;-79
2021/08/05 01:53:19;;;;;;;1999.90;999.90;;;18.30;99.90;;;;;;5017757;28;20401;-78
2021/08/05 01:55:46;;;;;;;1999.90;999.90;;;18.30;99.90;;;;;;5017418;28;20491;-79
2021/08/05 01:58:12;;;;;;;1999.90;999.90;;;18.30;99.90;;;;;;4999913;28;20409;-79
2021/08/05 02:00:38;;;;;;;1999.90;999.90;;;18.30;99.90;;;;;;4999587;28;20921;-79
2021/08/05 02:03:04;;;;;;;1999.90;999.90;;;18.30;99.90;;;;;;5016995;28;20401;-79
2021/08/05 02:05:43;;;;;;;1999.90;999.90;;;18.30;99.90;;;;;;5017251;28;20489;-79
2021/08/05 02:08:12;;;;;;;1999.90;999.90;;;18.20;99.90;;;;;;5017222;28;20910;-79
2021/08/05 02:10:40;;;;;;;1999.90;999.90;;;18.20;99.90;;;;;;5017077;28;20408;-79
2021/08/05 02:13:14;;;;;;;1999.90;999.90;;;18.20;99.90;;;;;;4999290;28;20408;-79
2021/08/05 02:15:49;;;;;;;1999.90;999.90;;;18.20;99.90;;;;;;5016914;28;20378;-78
2021/08/05 02:18:15;;;;;;;1999.90;999.90;;;18.20;99.90;;;;;;5016726;28;20413;-79
2021/08/05 02:20:45;;;;;;;1999.90;999.90;;;18.10;99.90;;;;;;5017023;28;20401;-79
2021/08/05 02:23:14;;;;;;;1999.90;999.90;;;18.10;99.90;;;;;;4999231;28;20496;-79
2021/08/05 02:25:44;;;;;;;1999.90;999.90;;;18.10;99.90;;;;;;5016947;28;20405;-79
2021/08/05 02:28:10;;;;;;;1999.90;999.90;;;18.10;99.90;;;;;;4999620;28;20440;-79
2021/08/05 02:30:37;;;;;;;1999.90;999.90;;;18.10;99.90;;;;;;5016619;28;20431;-79
2021/08/05 02:33:04;;;;;;;1999.90;999.90;;;18.00;99.90;;;;;;5016975;28;20844;-79
2021/08/05 02:35:33;;;;;;;1999.90;999.90;;;17.80;99.90;;;;;;5016199;28;20413;-79
2021/08/05 02:37:59;;;;;;;1999.90;999.90;;;17.90;99.90;;;;;;5016653;28;20432;-79
2021/08/05 02:40:24;;;;;;;1999.90;999.90;;;17.90;99.90;;;;;;5016731;28;20397;-79
2021/08/05 02:42:50;;;;;;;1999.90;999.90;;;18.00;99.90;;;;;;5017076;28;20401;-79
2021/08/05 02:45:17;;;;;;;1999.90;999.90;;;17.90;99.90;;;;;;4999874;28;20773;-79
2021/08/05 02:47:42;;;;;;;1999.90;999.90;;;18.00;99.90;;;;;;4999038;28;20843;-79
2021/08/05 02:50:09;;;;;;;1999.90;999.90;;;17.90;99.90;;;;;;5016741;28;20405;-78
2021/08/05 02:52:37;;;;;;;1999.90;999.90;;;17.90;99.90;;;;;;5016219;28;20638;-79
2021/08/05 02:55:03;;;;;;;1999.90;999.90;;;17.90;99.90;;;;;;5016008;28;20408;-78
2021/08/05 02:57:29;;;;;;;1999.90;999.90;;;18.00;99.90;;;;;;5016174;28;20448;-79
2021/08/05 02:59:56;;;;;;;1999.90;999.90;;;18.00;99.90;;;;;;4998268;28;20412;-79
2021/08/05 03:02:21;;;;;;;1999.90;999.90;;;18.00;99.90;;;;;;5016216;28;20397;-78
2021/08/05 03:04:48;;;;;;;1999.90;999.90;;;18.00;99.90;;;;;;5015839;28;20414;-79
2021/08/05 03:07:14;;;;;;;1999.90;999.90;;;18.00;99.90;;;;;;5016133;28;20657;-79
2021/08/05 03:09:40;;;;;;;1999.90;999.90;;;18.00;99.90;;;;;;5016170;28;20412;-79
2021/08/05 03:12:06;;;;;;;1999.90;999.90;;;18.00;99.90;;;;;;5016201;28;20419;-79
2021/08/05 03:14:32;;;;;;;1999.90;999.90;;;17.90;99.90;;;;;;4998173;28;20262;-79
2021/08/05 03:16:58;;;;;;;1999.90;999.90;;;17.90;99.90;;;;;;4998032;28;20574;-79
2021/08/05 03:19:24;;;;;;;1999.90;999.90;;;17.90;99.90;;;;;;4998111;28;20421;-79
2021/08/05 03:21:50;;;;;;;1999.90;999.90;;;17.80;99.90;;;;;;5014871;28;20504;-79
2021/08/05 03:24:16;;;;;;;1999.90;999.90;;;17.80;99.90;;;;;;5015779;28;20920;-79
2021/08/05 03:26:41;;;;;;;1999.90;999.90;;;17.80;99.90;;;;;;4997804;28;20193;-79
2021/08/05 03:29:07;;;;;;;1999.90;999.90;;;17.80;99.90;;;;;;4998457;28;20633;-78
2021/08/05 03:31:33;;;;;;;1999.90;999.90;;;17.90;99.90;;;;;;5015561;28;20641;-79
2021/08/05 03:34:04;;;;;;;1999.90;999.90;;;17.90;99.90;;;;;;5073199;22;20254;-79
2021/08/05 03:36:30;;;;;;;1999.90;999.90;;;17.90;99.90;;;;;;5055807;28;20700;-79
2021/08/05 03:38:58;;;;;;;1999.90;999.90;;;17.90;99.90;;;;;;5055580;28;20399;-79
2021/08/05 03:41:24;;;;;;;1999.90;999.90;;;17.90;99.90;;;;;;5055635;28;20399;-79
2021/08/05 03:43:50;;;;;;;1999.90;999.90;;;17.90;99.90;;;;;;5055447;28;20422;-79
2021/08/05 03:46:16;;;;;;;1999.90;999.90;;;17.80;99.90;;;;;;5037386;28;20189;-79
2021/08/05 03:48:44;;;;;;;1999.90;999.90;;;17.90;99.90;;;;;;5055248;28;20434;-79
2021/08/05 03:51:10;;;;;;;1999.90;999.90;;;17.80;99.90;;;;;;5055132;28;20241;-79
2021/08/05 03:53:35;;;;;;;1999.90;999.90;;;17.90;99.90;;;;;;5055251;28;20490;-79
2021/08/05 03:56:01;;;;;;;1999.90;999.90;;;17.90;99.90;;;;;;5055107;28;20722;-79
2021/08/05 03:58:26;;;;;;;1999.90;999.90;;;17.90;99.90;;;;;;5055739;28;20701;-79
2021/08/05 04:00:52;;;;;;;1999.90;999.90;;;17.80;99.90;;;;;;5037261;28;20693;-79
2021/08/05 04:03:18;;;;;;;1999.90;999.90;;;17.90;99.90;;;;;;5055535;28;20163;-79
2021/08/05 04:05:43;;;;;;;1999.90;999.90;;;17.80;99.90;;;;;;5055323;28;20631;-79
2021/08/05 04:08:09;;;;;;;1999.90;999.90;;;17.80;99.90;;;;;;5054837;28;20171;-79
2021/08/05 04:10:38;;;;;;;1999.90;999.90;;;17.80;99.90;;;;;;5054939;28;20164;-79
2021/08/05 04:13:03;;;;;;;1999.90;999.90;;;17.80;99.90;;;;;;5055034;28;20178;-79
2021/08/05 04:15:29;;;;;;;1999.90;999.90;;;17.80;99.90;;;;;;5055003;28;20399;-78
2021/08/05 04:17:55;;;;;;;1999.90;999.90;;;17.80;99.90;;;;;;5055124;28;20192;-79
2021/08/05 04:20:21;;;;;;;1999.90;999.90;;;17.80;99.90;;;;;;5054863;28;20240;-79
2021/08/05 04:22:49;;;;;;;1999.90;999.90;;;17.80;99.90;;;;;;5054997;28;20165;-79
2021/08/05 04:25:14;;;;;;;1999.90;999.90;;;17.80;99.90;;;;;;5054747;28;20464;-79
2021/08/05 04:27:40;;;;;;;1999.90;999.90;;;17.80;99.90;;;;;;5055008;28;20419;-79
2021/08/05 04:30:08;;;;;;;1999.90;999.90;;;17.80;99.90;;;;;;5055075;28;20399;-79
2021/08/05 04:32:34;;;;;;;1999.90;999.90;;;17.80;99.90;;;;;;5054681;28;20475;-79
2021/08/05 04:35:00;;;;;;;1999.90;999.90;;;17.80;99.90;;;;;;5054770;28;20454;-79
2021/08/05 04:37:25;;;;;;;1999.90;999.90;;;17.80;99.90;;;;;;5055276;28;20195;-79
2021/08/05 04:39:51;;;;;;;1999.90;999.90;;;17.80;99.90;;;;;;5054732;28;20161;-79
2021/08/05 04:42:17;;;;;;;1999.90;999.90;;;17.80;99.90;;;;;;5054969;28;20171;-79
2021/08/05 04:44:42;;;;;;;1999.90;999.90;;;17.80;99.90;;;;;;5037010;28;20168;-79
2021/08/05 04:47:08;;;;;;;1999.90;999.90;;;17.70;99.90;;;;;;5037003;28;20594;-79
2021/08/05 04:49:34;;;;;;;1999.90;999.90;;;17.80;99.90;;;;;;5054926;28;20632;-79
2021/08/05 04:52:00;;;;;;;1999.90;999.90;;;17.80;99.90;;;;;;5036672;28;20259;-78
2021/08/05 04:54:26;;;;;;;1999.90;999.90;;;17.80;99.90;;;;;;5054999;28;20469;-79
2021/08/05 04:56:52;;;;;;;1999.90;999.90;;;17.80;99.90;;;;;;5055099;28;20247;-79
2021/08/05 04:59:18;;;;;;;1999.90;999.90;;;17.80;99.90;;;;;;5036712;28;20461;-79
2021/08/05 05:01:44;;;;;;;1999.90;999.90;;;17.80;99.90;;;;;;5037005;28;20408;-78
2021/08/05 05:04:11;;;;;;;1999.90;999.90;;;17.80;99.90;;;;;;5054386;28;20164;-79
2021/08/05 05:06:37;;;;;;;1999.90;999.90;;;17.80;99.90;;;;;;5054603;28;20711;-79
2021/08/05 05:09:03;;;;;;;1999.90;999.90;;;17.80;99.90;;;;;;5054901;28;20403;-79
2021/08/05 05:11:30;;;;;;;1999.90;999.90;;;17.80;99.90;;;;;;5054812;28;20403;-79
2021/08/05 05:13:59;;;;;;;1999.90;999.90;;;17.80;99.90;;;;;;5054323;28;20407;-79
2021/08/05 05:16:25;;;;;;;1999.90;999.90;;;17.80;99.90;;;;;;5036395;28;20549;-79
2021/08/05 05:18:50;;;;;;;1999.90;999.90;;;17.80;99.90;;;;;;5054721;28;20430;-79
2021/08/05 05:21:16;;;;;;;1999.90;999.90;;;17.80;99.90;;;;;;5036960;28;20416;-79
2021/08/05 05:23:43;;;;;;;1999.90;999.90;;;17.80;99.90;;;;;;5054325;28;20521;-79
2021/08/05 05:26:09;;;;;;;1999.90;999.90;;;17.90;99.90;;;;;;5054421;28;20504;-79
2021/08/05 05:28:37;;;;;;;1999.90;999.90;;;17.80;99.90;;;;;;5054404;28;20430;-79
2021/08/05 05:31:03;;;;;;;1999.90;999.90;;;17.80;99.90;;;;;;5054842;28;20403;-79
2021/08/05 05:33:29;;;;;;;1999.90;999.90;;;17.90;99.90;;;;;;5054283;28;20405;-79
2021/08/05 05:35:55;;;;;;;1999.90;999.90;;;17.80;99.90;;;;;;5054615;28;20459;-79
2021/08/05 05:38:21;;;;;;;1999.90;999.90;;;17.90;99.90;;;;;;5054531;28;20161;-79
2021/08/05 05:40:47;;;;;;;1999.90;999.90;;;17.90;99.90;;;;;;5054067;28;20421;-79
2021/08/05 05:43:13;;;;;;;1999.90;999.90;;;17.90;99.90;;;;;;5054601;28;20396;-79
2021/08/05 05:45:39;;;;;;;1999.90;999.90;;;18.00;99.90;;;;;;5057618;28;20629;-79
2021/08/05 05:48:07;;;;;;;1999.90;999.90;;;18.00;99.90;;;;;;5058083;28;20421;-79
2021/08/05 05:50:32;;;;;;;1999.90;999.90;;;18.00;99.90;;;;;;5058185;28;20906;-79
2021/08/05 05:52:59;;;;;;;1999.90;999.90;;;18.10;99.90;;;;;;5057523;28;20414;-79
2021/08/05 05:55:25;;;;;;;1999.90;999.90;;;18.10;99.90;;;;;;5058018;28;20453;-79
2021/08/05 05:57:50;;;;;;;1999.90;999.90;;;18.10;99.90;;;;;;5039471;28;20553;-79
2021/08/05 06:00:16;;;;;;;1999.90;999.90;;;18.20;99.90;;;;;;5057901;28;20395;-80
2021/08/05 06:02:42;;;;;;;1999.90;999.90;;;18.20;99.90;;;;;;5039891;28;20160;-79
2021/08/05 06:05:09;;;;;;;1999.90;999.90;;;18.10;99.90;;;;;;5057574;28;20763;-79
2021/08/05 06:07:49;;;;;;;1999.90;999.90;;;18.20;99.90;;;;;;5057997;28;20190;-80
2021/08/05 06:10:17;;;;;;;1999.90;999.90;;;18.20;99.90;;;;;;5039930;28;20438;-79
2021/08/05 06:12:43;;;;;;;1999.90;999.90;;;18.20;99.90;;;;;;5039607;28;20408;-78
2021/08/05 06:15:09;;;;;;;1999.90;999.90;;;18.20;99.90;;;;;;5057223;28;20437;-79
2021/08/05 06:17:35;;;;;;;1999.90;999.90;;;18.30;99.90;;;;;;5057187;28;20196;-79
2021/08/05 06:20:02;;;;;;;1999.90;999.90;;;18.30;99.90;;;;;;5057674;28;20429;-79
2021/08/05 06:22:28;;;;;;;1999.90;999.90;;;18.30;99.90;;;;;;5057715;28;20548;-79
2021/08/05 06:24:54;;;;;;;1999.90;999.90;;;18.40;99.90;;;;;;5057399;28;20383;-79
2021/08/05 06:27:22;;;;;;;1999.90;999.90;;;18.40;99.90;;;;;;5040079;28;20668;-79
2021/08/05 06:29:48;;;;;;;1999.90;999.90;;;18.40;99.90;;;;;;5057608;28;20252;-79
2021/08/05 06:32:14;;;;;;;1999.90;999.90;;;18.40;99.90;;;;;;5057261;28;20403;-79
2021/08/05 06:34:40;;;;;;;1999.90;999.90;;;18.50;99.90;;;;;;5056832;28;20488;-79
2021/08/05 06:37:06;;;;;;;1999.90;999.90;;;18.60;99.90;;;;;;5057006;28;20451;-79
2021/08/05 06:39:31;;;;;;;1999.90;999.90;;;18.60;99.90;;;;;;5057117;28;20157;-79
2021/08/05 06:41:57;;;;;;;1999.90;999.90;;;18.60;99.90;;;;;;5056391;28;20188;-79
2021/08/05 06:44:23;;;;;;;1999.90;999.90;;;18.60;99.90;;;;;;5056715;28;20164;-79
2021/08/05 06:46:48;;;;;;;1999.90;999.90;;;18.70;99.90;;;;;;5057089;28;20672;-79
2021/08/05 06:49:14;;;;;;;1999.90;999.90;;;18.70;99.90;;;;;;5057024;28;20616;-79
2021/08/05 06:51:40;;;;;;;1999.90;999.90;;;18.70;99.90;;;;;;5056644;28;20157;-79
2021/08/05 06:54:05;;;;;;;1999.90;999.90;;;18.80;99.90;;;;;;5056356;28;20572;-79
2021/08/05 06:56:31;;;;;;;1999.90;999.90;;;18.70;99.90;;;;;;5056147;28;20200;-79
2021/08/05 06:58:57;;;;;;;1999.90;999.90;;;18.60;99.90;;;;;;5038441;28;20528;-79
2021/08/05 07:01:22;;;;;;;1999.90;999.90;;;18.60;99.90;;;;;;5056226;28;20171;-80
2021/08/05 07:03:48;;;;;;;1999.90;999.90;;;18.60;99.90;;;;;;5056710;28;20164;-79
2021/08/05 07:06:14;;;;;;;1999.90;999.90;;;18.60;99.90;;;;;;5056901;28;20470;-79
2021/08/05 07:08:39;;;;;;;1999.90;999.90;;;18.50;99.90;;;;;;5038849;28;20180;-79
2021/08/05 07:11:05;;;;;;;1999.90;999.90;;;18.60;99.90;;;;;;5056903;28;20165;-79
2021/08/05 07:13:31;;;;;;;1999.90;999.90;;;18.60;99.90;;;;;;5056302;28;20239;-79
2021/08/05 07:15:57;;;;;;;1999.90;999.90;;;18.60;99.90;;;;;;5056585;28;20517;-79
2021/08/05 07:18:25;;;;;;;1999.90;999.90;;;18.70;99.90;;;;;;5038183;28;20632;-79
2021/08/05 07:20:51;;;;;;;1999.90;999.90;;;18.80;99.90;;;;;;5056099;28;20238;-79
2021/08/05 07:23:17;;;;;;;1999.90;999.90;;;18.90;99.90;;;;;;5038811;28;20490;-79
2021/08/05 07:25:44;;;;;;;1999.90;999.90;;;18.90;99.90;;;;;;5055981;28;20157;-79
2021/08/05 07:28:10;;;;;;;1999.90;999.90;;;19.00;99.90;;;;;;5055766;28;20146;-79
2021/08/05 07:30:37;;;;;;;1999.90;999.90;;;19.10;99.90;;;;;;5055416;28;20398;-79
2021/08/05 07:33:03;;;;;;;1999.90;999.90;;;19.00;99.90;;;;;;5055783;28;20244;-79
2021/08/05 07:35:29;;;;;;;1999.90;999.90;;;19.00;99.90;;;;;;5055601;28;20451;-79
2021/08/05 07:37:55;;;;;;;1999.90;999.90;;;19.10;99.90;;;;;;5056126;28;21005;-79
2021/08/05 07:40:20;;;;;;;1999.90;999.90;;;19.10;99.90;;;;;;5055873;28;20164;-79
2021/08/05 07:42:49;;;;;;;1999.90;999.90;;;19.10;99.90;;;;;;5055630;28;20161;-79
2021/08/05 07:45:14;;;;;;;1999.90;999.90;;;19.20;99.90;;;;;;5056099;28;20702;-78
2021/08/05 07:47:40;;;;;;;1999.90;999.90;;;19.10;99.90;;;;;;5037590;28;20513;-79
2021/08/05 07:50:09;;;;;;;1999.90;999.90;;;19.20;99.90;;;;;;5055219;28;20171;-79
2021/08/05 07:52:36;;;;;;;1999.90;999.90;;;19.20;99.90;;;;;;5037660;28;20173;-79
2021/08/05 07:55:05;;;;;;;1999.90;999.90;;;19.20;99.90;;;;;;5037414;28;20502;-79
2021/08/05 07:57:31;;;;;;;1999.90;999.90;;;19.20;99.90;;;;;;5055440;28;20455;-79
2021/08/05 07:59:57;;;;;;;1999.90;999.90;;;19.30;99.90;;;;;;5055680;28;20426;-79
2021/08/05 08:02:22;;;;;;;1999.90;999.90;;;19.20;99.90;;;;;;5055538;28;20933;-79
2021/08/05 08:04:51;;;;;;;1999.90;999.90;;;19.40;99.90;;;;;;5055353;28;20241;-79
2021/08/05 08:07:17;;;;;;;1999.90;999.90;;;19.50;99.90;;;;;;5036584;28;20687;-79
2021/08/05 08:09:42;;;;;;;1999.90;999.90;;;19.40;99.90;;;;;;5037247;28;20418;-79
2021/08/05 08:12:08;;;;;;;1999.90;999.90;;;19.40;99.90;;;;;;5037497;28;20173;-79
2021/08/05 08:14:34;;;;;;;1999.90;999.90;;;19.50;99.90;;;;;;5055386;28;20179;-79
2021/08/05 08:17:00;;;;;;;1999.90;999.90;;;19.50;99.90;;;;;;5036981;28;20197;-79
2021/08/05 08:19:26;;;;;;;1999.90;999.90;;;19.70;99.90;;;;;;5037706;28;20397;-79
2021/08/05 08:21:52;;;;;;;1999.90;999.90;;;19.70;99.90;;;;;;5054978;28;20414;-79
2021/08/05 08:24:19;;;;;;;1999.90;999.90;;;19.90;99.90;;;;;;5055458;28;20431;-79
2021/08/05 08:26:44;;;;;;;1999.90;999.90;;;19.90;99.90;;;;;;5037071;28;20813;-79
2021/08/05 08:29:10;;;;;;;1999.90;999.90;;;20.00;99.90;;;;;;5054794;28;20410;-79
2021/08/05 08:31:36;;;;;;;1999.90;999.90;;;20.10;99.90;;;;;;5055090;28;20168;-79
2021/08/05 08:34:02;;;;;;;1999.90;999.90;;;20.00;99.90;;;;;;5036941;28;20206;-78
2021/08/05 08:36:27;;;;;;;1999.90;999.90;;;20.00;99.90;;;;;;5036761;28;20463;-79
2021/08/05 08:38:53;;;;;;;1999.90;999.90;;;20.20;99.90;;;;;;5054584;28;20632;-79
2021/08/05 08:41:20;;;;;;;1999.90;999.90;;;20.20;99.90;;;;;;5054987;28;20661;-79
2021/08/05 08:43:49;;;;;;;1999.90;999.90;;;20.30;99.90;;;;;;5054786;28;20659;-79
2021/08/05 08:46:21;;;;;;;1999.90;999.90;;;20.40;99.90;;;;;;5054834;28;20426;-79
2021/08/05 08:48:52;;;;;;;1999.90;999.90;;;20.40;99.90;;;;;;5038039;28;20401;-79
2021/08/05 08:51:19;;;;;;;1999.90;999.90;;;20.50;99.90;;;;;;5038568;28;20420;-79
2021/08/05 08:53:52;;;;;;;1999.90;999.90;;;20.40;99.90;;;;;;5055731;28;20410;-79
2021/08/05 08:56:21;;;;;;;1999.90;999.90;;;20.50;99.90;;;;;;5037724;28;20552;-79
2021/08/05 08:58:47;;;;;;;1999.90;999.90;;;20.70;99.90;;;;;;5054078;28;20430;-79
2021/08/05 09:01:13;;;;;;;1999.90;999.90;;;20.60;99.90;;;;;;5054127;28;20391;-79
2021/08/05 09:03:40;;;;;;;1999.90;999.90;;;20.60;99.90;;;;;;5036440;28;20932;-79
2021/08/05 09:06:05;;;;;;;1999.90;999.90;;;20.70;99.90;;;;;;5036484;28;20252;-79
2021/08/05 09:08:31;;;;;;;1999.90;999.90;;;20.80;99.90;;;;;;5053995;28;20895;-79
2021/08/05 09:10:57;;;;;;;1999.90;999.90;;;20.90;99.90;;;;;;5036287;28;20202;-79
2021/08/05 09:13:23;;;;;;;1999.90;999.90;;;21.10;99.90;;;;;;5054354;28;20640;-78
2021/08/05 09:15:49;;;;;;;1999.90;999.90;;;21.10;99.90;;;;;;5054155;28;20488;-79
2021/08/05 09:18:35;;;;;;;1999.90;999.90;;;21.30;99.90;;;;;;5054652;28;20825;-78
2021/08/05 09:21:05;;;;;;;1999.90;999.90;;;21.50;99.90;;;;;;5057950;28;20404;-78
2021/08/05 09:24:06;;;;;;;1999.90;999.90;;;21.60;99.90;;;;;;5058153;28;20397;-79
2021/08/05 09:26:47;;;;;;;1999.90;999.90;;;21.60;99.90;;;;;;5058333;28;20442;-78
2021/08/05 09:29:23;;;;;;;1999.90;999.90;;;21.60;99.90;;;;;;5057931;28;20478;-78
2021/08/05 09:31:59;;;;;;;1999.90;999.90;;;21.60;99.90;;;;;;5058098;28;20413;-78
2021/08/05 09:35:27;;;;;;;1999.90;999.90;;;21.50;99.90;;;;;;5152821;22;20510;-83
2021/08/05 09:37:52;;;;;;;1999.90;999.90;;;21.90;99.90;;;;;;4964335;28;20521;-84
2021/08/05 09:40:52;;;;;;;1999.90;999.90;;;22.00;99.90;;;;;;5026476;28;20443;-80
2021/08/05 09:43:28;;;;;;;1999.90;999.90;;;22.20;99.90;;;;;;5017164;28;20653;-80
2021/08/05 09:49:20;;;;;;;1999.90;999.90;;;22.00;99.90;;;;;;5007506;28;20910;-80
2021/08/05 09:51:57;;;;;;;1999.90;999.90;;;22.00;99.90;;;;;;5022861;28;20781;-80
2021/08/05 09:54:52;;;;;;;1999.90;999.90;;;22.10;99.90;;;;;;5041571;28;20414;-80
2021/08/05 09:57:41;;;;;;;1999.90;999.90;;;22.00;99.90;;;;;;5041041;28;20463;-80
2021/08/05 10:00:23;;;;;;;1999.90;999.90;;;21.90;99.90;;;;;;5041352;28;20452;-80
2021/08/05 10:03:16;;;;;;;1999.90;999.90;;;21.70;99.90;;;;;;5041680;28;20399;-82
2021/08/05 10:06:05;;;;;;;1999.90;999.90;;;21.70;99.90;;;;;;5039145;28;20874;-81
2021/08/05 10:09:08;;;;;;;1999.90;999.90;;;22.00;99.90;;;;;;5040230;28;20496;-82
2021/08/05 10:11:43;;;;;;;1999.90;999.90;;;22.30;99.90;;;;;;5033689;28;20788;-82
2021/08/05 10:14:27;;;;;;;1999.90;999.90;;;22.50;99.90;;;;;;5021596;28;20404;-82
2021/08/05 10:17:25;;;;;;;1999.90;999.90;;;22.70;99.90;;;;;;5039810;28;20471;-81
2021/08/05 10:19:51;;;;;;;1999.90;999.90;;;22.80;99.90;;;;;;5005319;28;20790;-80
2021/08/05 10:22:27;;;;;;;1999.90;999.90;;;23.00;99.90;;;;;;5040530;28;20405;-81
2021/08/05 10:25:48;;;;;;;1999.90;999.90;;;23.20;99.90;;;;;;5040685;28;20388;-81
2021/08/05 10:31:19;;;;;;;1999.90;999.90;;;23.50;98.70;;;;;;4978821;28;20439;-81
2021/08/05 10:33:49;;;;;;;1999.90;999.90;;;23.40;97.50;;;;;;5040974;28;20412;-80
2021/08/05 10:36:43;;;;;;;1999.90;999.90;;;23.70;99.60;;;;;;5040677;28;20804;-81
2021/08/05 10:39:58;;;;;;;1999.90;999.90;;;23.90;86.90;;;;;;5015755;28;20412;-81
2021/08/05 10:42:57;;;;;;;1999.90;999.90;;;24.10;87.70;;;;;;5023262;28;20922;-81
2021/08/05 10:45:43;;;;;;;1999.90;999.90;;;24.00;91.20;;;;;;5023438;28;20915;-81
2021/08/05 10:48:45;;;;;;;1999.90;999.90;;;24.00;99.70;;;;;;5041894;28;20385;-80
2021/08/05 10:51:23;;;;;;;1999.90;999.90;;;24.20;96.80;;;;;;5014007;28;20439;-80
2021/08/05 10:53:48;;;;;;;1999.90;999.90;;;24.40;97.90;;;;;;5023205;28;20779;-81
2021/08/05 10:56:30;;;;;;;1999.90;999.90;;;24.80;95.60;;;;;;5040943;28;20448;-81
2021/08/05 10:59:19;;;;;;;1999.90;999.90;;;25.00;92.80;;;;;;5041964;28;20220;-81
2021/08/05 11:02:28;;;;;;;1999.90;999.90;;;25.30;90.60;;;;;;5040545;28;20772;-80
2021/08/05 11:04:57;;;;;;;1999.90;999.90;;;25.00;80.30;;;;;;5023238;28;20422;-81
2021/08/05 11:07:35;;;;;;;1999.90;999.90;;;24.70;85.50;;;;;;5040272;28;20565;-82
2021/08/05 11:10:16;;;;;;;1999.90;999.90;;;24.50;88.60;;;;;;5040460;28;20417;-81
2021/08/05 11:12:49;;;;;;;1999.90;999.90;;;24.50;94.40;;;;;;5041290;28;20492;-81
2021/08/05 11:15:25;;;;;;;1999.90;999.90;;;24.20;96.30;;;;;;5040502;28;20382;-80
2021/08/05 11:18:16;;;;;;;1999.90;999.90;;;24.00;93.20;;;;;;5039427;28;20547;-81
2021/08/05 11:20:57;;;;;;;1999.90;999.90;;;24.10;98.40;;;;;;5045179;28;20497;-82
2021/08/05 11:23:29;;;;;;;1999.90;999.90;;;24.60;98.50;;;;;;5045418;28;20794;-82
2021/08/05 11:26:18;;;;;;;1999.90;999.90;;;25.00;92.10;;;;;;5040980;28;20874;-81
2021/08/05 11:28:51;;;;;;;1999.90;999.90;;;25.50;90.10;;;;;;5037486;28;20435;-82
2021/08/05 11:31:42;;;;;;;1999.90;999.90;;;25.60;88.60;;;;;;5038322;28;20417;-82
2021/08/05 11:34:56;;;;;;;1999.90;999.90;;;25.90;66.40;;;;;;5021397;28;20918;-82
2021/08/05 11:38:05;;;;;;;1999.90;999.90;;;26.20;41.70;;;;;;5019751;28;20554;-82
2021/08/05 11:41:06;;;;;;;1999.90;999.90;;;26.00;45.20;;;;;;5000891;28;20435;-82
2021/08/05 11:43:32;;;;;;;1999.90;999.90;;;25.50;38.10;;;;;;5037304;28;20396;-82
2021/08/05 11:46:35;;;;;;;1999.90;999.90;;;25.20;61.00;;;;;;5037668;28;20864;-83
2021/08/05 11:49:39;;;;;;;1999.90;999.90;;;25.20;75.60;;;;;;5039084;28;20379;-83
2021/08/05 11:52:23;;;;;;;1999.90;999.90;;;25.80;79.30;;;;;;5017047;28;20414;-83
2021/08/05 11:55:14;;;;;;;1999.90;999.90;;;26.00;67.80;;;;;;5039609;28;20490;-83
2021/08/05 11:58:11;;;;;;;1999.90;999.90;;;26.30;68.10;;;;;;5038686;28;20452;-82
2021/08/05 12:00:52;;;;;;;1999.90;999.90;;;26.40;59.90;;;;;;5040037;28;20396;-83
2021/08/05 12:03:26;;;;;;;1999.90;999.90;;;26.60;57.80;;;;;;5022836;28;20442;-82
2021/08/05 12:05:55;;;;;;;1999.90;999.90;;;26.70;52.40;;;;;;5049137;22;20381;-81
2021/08/05 12:08:53;;;;;;;1999.90;999.90;;;26.70;50.40;;;;;;5039446;28;20507;-82
2021/08/05 12:11:18;;;;;;;1999.90;999.90;;;26.80;72.70;;;;;;5040896;28;20415;-82
2021/08/05 12:13:53;;;;;;;1999.90;999.90;;;26.90;69.70;;;;;;5025561;28;20412;-82
2021/08/05 12:16:45;;;;;;;1999.90;999.90;;;27.10;65.30;;;;;;5039398;28;20452;-82
2021/08/05 12:19:11;;;;;;;1999.90;999.90;;;27.20;55.60;;;;;;5041498;28;20480;-82
2021/08/05 12:21:52;;;;;;;1999.90;999.90;;;27.00;63.50;;;;;;5023976;28;20927;-82
2021/08/05 12:24:41;;;;;;;1999.90;999.90;;;27.20;51.30;;;;;;5023325;28;20603;-82